sensor_id;sensor_type;location;lat;lon;timestamp;temperature;humidity
41882;DHT22;27562;47.524;12.404;2023-02-15T00:01:42;-1.10;99.90
41882;DHT22;27562;47.524;12.404;2023-02-15T00:04:09;-1.10;99.90
41882;DHT22;27562;47.524;12.404;2023-02-15T00:06:35;-1.20;99.90
41882;DHT22;27562;47.524;12.404;2023-02-15T00:09:01;-1.30;99.90
41882;DHT22;27562;47.524;12.404;2023-02-15T00:11:27;-1.30;99.90
41882;DHT22;27562;47.524;12.404;2023-02-15T00:14:09;-1.30;99.90
41882;DHT22;27562;47.524;12.404;2023-02-15T00:16:35;-1.30;99.90
41882;DHT22;27562;47.524;12.404;2023-02-15T00:19:01;-1.30;99.90
41882;DHT22;27562;47.524;12.404;2023-02-15T00:21:27;-1.30;99.90
41882;DHT22;27562;47.524;12.404;2023-02-15T00:23:54;-1.20;99.90
41882;DHT22;27562;47.524;12.404;2023-02-15T00:26:19;-1.30;99.90
41882;DHT22;27562;47.524;12.404;2023-02-15T00:28:45;-1.30;99.90
41882;DHT22;27562;47.524;12.404;2023-02-15T00:31:11;-1.30;99.90
41882;DHT22;27562;47.524;12.404;2023-02-15T00:33:37;-1.30;99.90
41882;DHT22;27562;47.524;12.404;2023-02-15T00:36:03;-1.40;99.90
41882;DHT22;27562;47.524;12.404;2023-02-15T00:38:30;-1.40;99.90
41882;DHT22;27562;47.524;12.404;2023-02-15T00:40:57;-1.40;99.90
41882;DHT22;27562;47.524;12.404;2023-02-15T00:43:22;-1.40;99.90
41882;DHT22;27562;47.524;12.404;2023-02-15T00:45:48;-1.40;99.90
41882;DHT22;27562;47.524;12.404;2023-02-15T00:48:14;-1.40;99.90
41882;DHT22;27562;47.524;12.404;2023-02-15T00:50:39;-1.40;99.90
41882;DHT22;27562;47.524;12.404;2023-02-15T00:53:05;-1.40;99.90
41882;DHT22;27562;47.524;12.404;2023-02-15T00:55:30;-1.40;99.90
41882;DHT22;27562;47.524;12.404;2023-02-15T00:57:56;-1.40;99.90
41882;DHT22;27562;47.524;12.404;2023-02-15T01:00:22;-1.50;99.90
41882;DHT22;27562;47.524;12.404;2023-02-15T01:02:47;-1.60;99.90
41882;DHT22;27562;47.524;12.404;2023-02-15T01:05:13;-1.60;99.90
41882;DHT22;27562;47.524;12.404;2023-02-15T01:07:39;-1.70;99.90
41882;DHT22;27562;47.524;12.404;2023-02-15T01:10:05;-1.70;99.90
41882;DHT22;27562;47.524;12.404;2023-02-15T01:12:31;-1.70;99.90
41882;DHT22;27562;47.524;12.404;2023-02-15T01:14:57;-1.80;99.90
41882;DHT22;27562;47.524;12.404;2023-02-15T01:17:23;-1.80;99.90
41882;DHT22;27562;47.524;12.404;2023-02-15T01:19:48;-1.80;99.90
41882;DHT22;27562;47.524;12.404;2023-02-15T01:22:14;-1.80;99.90
41882;DHT22;27562;47.524;12.404;2023-02-15T01:24:39;-1.80;99.90
41882;DHT22;27562;47.524;12.404;2023-02-15T01:27:05;-1.80;99.90
41882;DHT22;27562;47.524;12.404;2023-02-15T01:29:30;-1.80;99.90
41882;DHT22;27562;47.524;12.404;2023-02-15T01:31:56;-1.80;99.90
41882;DHT22;27562;47.524;12.404;2023-02-15T01:34:21;-1.80;99.90
41882;DHT22;27562;47.524;12.404;2023-02-15T01:36:47;-1.70;99.90
41882;DHT22;27562;47.524;12.404;2023-02-15T01:39:13;-1.70;99.90
41882;DHT22;27562;47.524;12.404;2023-02-15T01:41:40;-1.80;99.90
41882;DHT22;27562;47.524;12.404;2023-02-15T01:46:50;-2.00;99.90
41882;DHT22;27562;47.524;12.404;2023-02-15T01:49:18;-2.00;99.90
41882;DHT22;27562;47.524;12.404;2023-02-15T01:51:45;-2.10;99.90
41882;DHT22;27562;47.524;12.404;2023-02-15T01:56:39;-2.10;99.90
41882;DHT22;27562;47.524;12.404;2023-02-15T01:59:08;-2.10;99.90
41882;DHT22;27562;47.524;12.404;2023-02-15T02:01:34;-2.00;99.90
41882;DHT22;27562;47.524;12.404;2023-02-15T02:04:02;-2.00;99.90
41882;DHT22;27562;47.524;12.404;2023-02-15T02:06:29;-2.00;99.90
41882;DHT22;27562;47.524;12.404;2023-02-15T02:08:55;-2.00;99.90
41882;DHT22;27562;47.524;12.404;2023-02-15T02:11:21;-2.00;99.90
41882;DHT22;27562;47.524;12.404;2023-02-15T02:13:47;-2.00;99.90
41882;DHT22;27562;47.524;12.404;2023-02-15T02:16:33;-2.00;99.90
41882;DHT22;27562;47.524;12.404;2023-02-15T02:19:10;-2.00;99.90
41882;DHT22;27562;47.524;12.404;2023-02-15T02:21:48;-2.00;99.90
41882;DHT22;27562;47.524;12.404;2023-02-15T02:27:06;-2.00;99.90
41882;DHT22;27562;47.524;12.404;2023-02-15T02:29:49;-2.00;99.90
41882;DHT22;27562;47.524;12.404;2023-02-15T02:35:08;-2.00;99.90
41882;DHT22;27562;47.524;12.404;2023-02-15T02:43:00;-2.10;99.90
41882;DHT22;27562;47.524;12.404;2023-02-15T02:47:53;-2.20;99.90
41882;DHT22;27562;47.524;12.404;2023-02-15T02:50:26;-2.20;99.90
41882;DHT22;27562;47.524;12.404;2023-02-15T02:52:53;-2.20;99.90
41882;DHT22;27562;47.524;12.404;2023-02-15T02:55:21;-2.30;99.90
41882;DHT22;27562;47.524;12.404;2023-02-15T03:00:14;-2.40;99.90
41882;DHT22;27562;47.524;12.404;2023-02-15T03:02:41;-2.40;99.90
41882;DHT22;27562;47.524;12.404;2023-02-15T03:05:09;-2.40;99.90
41882;DHT22;27562;47.524;12.404;2023-02-15T03:07:38;-2.40;99.90
41882;DHT22;27562;47.524;12.404;2023-02-15T03:10:04;-2.40;99.90
41882;DHT22;27562;47.524;12.404;2023-02-15T03:12:32;-2.30;99.90
41882;DHT22;27562;47.524;12.404;2023-02-15T03:15:03;-2.30;99.90
41882;DHT22;27562;47.524;12.404;2023-02-15T03:17:30;-2.30;99.90
41882;DHT22;27562;47.524;12.404;2023-02-15T03:19:58;-2.30;99.90
41882;DHT22;27562;47.524;12.404;2023-02-15T03:22:30;-2.30;99.90
41882;DHT22;27562;47.524;12.404;2023-02-15T03:25:09;-2.30;99.90
41882;DHT22;27562;47.524;12.404;2023-02-15T03:27:37;-2.30;99.90
41882;DHT22;27562;47.524;12.404;2023-02-15T03:30:04;-2.30;99.90
41882;DHT22;27562;47.524;12.404;2023-02-15T03:32:31;-2.40;99.90
41882;DHT22;27562;47.524;12.404;2023-02-15T03:34:57;-2.40;99.90
41882;DHT22;27562;47.524;12.404;2023-02-15T03:39:53;-2.50;99.90
41882;DHT22;27562;47.524;12.404;2023-02-15T03:42:22;-2.50;99.90
41882;DHT22;27562;47.524;12.404;2023-02-15T03:45:01;-2.50;99.90
41882;DHT22;27562;47.524;12.404;2023-02-15T03:47:34;-2.50;99.90
41882;DHT22;27562;47.524;12.404;2023-02-15T03:50:05;-2.50;99.90
41882;DHT22;27562;47.524;12.404;2023-02-15T03:52:55;-2.50;99.90
41882;DHT22;27562;47.524;12.404;2023-02-15T03:55:22;-2.60;99.90
41882;DHT22;27562;47.524;12.404;2023-02-15T03:57:48;-2.60;99.90
41882;DHT22;27562;47.524;12.404;2023-02-15T04:00:33;-2.70;99.90
41882;DHT22;27562;47.524;12.404;2023-02-15T04:05:45;-2.70;99.90
41882;DHT22;27562;47.524;12.404;2023-02-15T04:08:11;-2.70;99.90
41882;DHT22;27562;47.524;12.404;2023-02-15T04:10:37;-2.70;99.90
41882;DHT22;27562;47.524;12.404;2023-02-15T04:13:18;-2.80;99.90
41882;DHT22;27562;47.524;12.404;2023-02-15T04:15:44;-2.80;99.90
41882;DHT22;27562;47.524;12.404;2023-02-15T04:18:28;-2.80;99.90
41882;DHT22;27562;47.524;12.404;2023-02-15T04:21:12;-2.80;99.90
41882;DHT22;27562;47.524;12.404;2023-02-15T04:23:57;-2.80;99.90
41882;DHT22;27562;47.524;12.404;2023-02-15T04:26:41;-2.70;99.90
41882;DHT22;27562;47.524;12.404;2023-02-15T04:29:06;-2.70;99.90
41882;DHT22;27562;47.524;12.404;2023-02-15T04:31:32;-2.70;99.90
41882;DHT22;27562;47.524;12.404;2023-02-15T04:33:57;-2.70;99.90
41882;DHT22;27562;47.524;12.404;2023-02-15T04:36:23;-2.70;99.90
41882;DHT22;27562;47.524;12.404;2023-02-15T04:38:49;-2.80;99.90
41882;DHT22;27562;47.524;12.404;2023-02-15T04:41:14;-2.80;99.90
41882;DHT22;27562;47.524;12.404;2023-02-15T04:43:40;-2.80;99.90
41882;DHT22;27562;47.524;12.404;2023-02-15T04:46:05;-2.80;99.90
41882;DHT22;27562;47.524;12.404;2023-02-15T04:48:31;-2.80;99.90
41882;DHT22;27562;47.524;12.404;2023-02-15T04:50:58;-2.80;99.90
41882;DHT22;27562;47.524;12.404;2023-02-15T04:53:24;-2.80;99.90
41882;DHT22;27562;47.524;12.404;2023-02-15T04:55:49;-2.80;99.90
41882;DHT22;27562;47.524;12.404;2023-02-15T04:58:15;-2.80;99.90
41882;DHT22;27562;47.524;12.404;2023-02-15T05:00:40;-2.80;99.90
41882;DHT22;27562;47.524;12.404;2023-02-15T05:03:06;-2.80;99.90
41882;DHT22;27562;47.524;12.404;2023-02-15T05:05:31;-2.80;99.90
41882;DHT22;27562;47.524;12.404;2023-02-15T05:07:57;-2.80;99.90
41882;DHT22;27562;47.524;12.404;2023-02-15T05:10:22;-2.80;99.90
41882;DHT22;27562;47.524;12.404;2023-02-15T05:12:48;-2.80;99.90
41882;DHT22;27562;47.524;12.404;2023-02-15T05:15:14;-2.80;99.90
41882;DHT22;27562;47.524;12.404;2023-02-15T05:17:39;-2.80;99.90
41882;DHT22;27562;47.524;12.404;2023-02-15T05:20:05;-2.90;99.90
41882;DHT22;27562;47.524;12.404;2023-02-15T05:22:31;-2.90;99.90
41882;DHT22;27562;47.524;12.404;2023-02-15T05:24:56;-2.90;99.90
41882;DHT22;27562;47.524;12.404;2023-02-15T05:27:41;-2.90;99.90
41882;DHT22;27562;47.524;12.404;2023-02-15T05:30:25;-2.90;99.90
41882;DHT22;27562;47.524;12.404;2023-02-15T05:32:50;-2.90;99.90
41882;DHT22;27562;47.524;12.404;2023-02-15T05:35:16;-2.90;99.90
41882;DHT22;27562;47.524;12.404;2023-02-15T05:37:41;-2.90;99.90
41882;DHT22;27562;47.524;12.404;2023-02-15T05:40:07;-2.90;99.90
41882;DHT22;27562;47.524;12.404;2023-02-15T05:42:33;-2.90;99.90
41882;DHT22;27562;47.524;12.404;2023-02-15T05:44:59;-2.90;99.90
41882;DHT22;27562;47.524;12.404;2023-02-15T05:47:24;-3.00;99.90
41882;DHT22;27562;47.524;12.404;2023-02-15T05:49:50;-3.00;99.90
41882;DHT22;27562;47.524;12.404;2023-02-15T05:52:16;-3.10;99.90
41882;DHT22;27562;47.524;12.404;2023-02-15T05:54:42;-3.10;99.90
41882;DHT22;27562;47.524;12.404;2023-02-15T05:57:07;-3.10;99.90
41882;DHT22;27562;47.524;12.404;2023-02-15T05:59:33;-3.10;99.90
41882;DHT22;27562;47.524;12.404;2023-02-15T06:01:58;-3.10;99.90
41882;DHT22;27562;47.524;12.404;2023-02-15T06:04:24;-3.10;99.90
41882;DHT22;27562;47.524;12.404;2023-02-15T06:06:49;-3.10;99.90
41882;DHT22;27562;47.524;12.404;2023-02-15T06:09:15;-3.10;99.90
41882;DHT22;27562;47.524;12.404;2023-02-15T06:11:44;-3.10;99.90
41882;DHT22;27562;47.524;12.404;2023-02-15T06:14:10;-3.10;99.90
41882;DHT22;27562;47.524;12.404;2023-02-15T06:16:35;-3.10;99.90
41882;DHT22;27562;47.524;12.404;2023-02-15T06:19:01;-3.10;99.90
41882;DHT22;27562;47.524;12.404;2023-02-15T06:21:27;-3.10;99.90
41882;DHT22;27562;47.524;12.404;2023-02-15T06:23:53;-3.10;99.90
41882;DHT22;27562;47.524;12.404;2023-02-15T06:26:18;-3.10;99.90
41882;DHT22;27562;47.524;12.404;2023-02-15T06:28:44;-3.10;99.90
41882;DHT22;27562;47.524;12.404;2023-02-15T06:31:09;-3.10;99.90
41882;DHT22;27562;47.524;12.404;2023-02-15T06:33:35;-3.10;99.90
41882;DHT22;27562;47.524;12.404;2023-02-15T06:36:01;-3.10;99.90
41882;DHT22;27562;47.524;12.404;2023-02-15T06:38:27;-3.10;99.90
41882;DHT22;27562;47.524;12.404;2023-02-15T06:40:52;-3.10;99.90
41882;DHT22;27562;47.524;12.404;2023-02-15T06:43:18;-3.10;99.90
41882;DHT22;27562;47.524;12.404;2023-02-15T06:45:43;-3.10;99.90
41882;DHT22;27562;47.524;12.404;2023-02-15T06:48:09;-3.10;99.90
41882;DHT22;27562;47.524;12.404;2023-02-15T06:50:37;-3.10;99.90
41882;DHT22;27562;47.524;12.404;2023-02-15T06:53:03;-3.20;99.90
41882;DHT22;27562;47.524;12.404;2023-02-15T06:55:28;-3.20;99.90
41882;DHT22;27562;47.524;12.404;2023-02-15T06:57:54;-3.20;99.90
41882;DHT22;27562;47.524;12.404;2023-02-15T07:00:19;-3.20;99.90
41882;DHT22;27562;47.524;12.404;2023-02-15T07:02:47;-3.20;99.90
41882;DHT22;27562;47.524;12.404;2023-02-15T07:05:12;-3.20;99.90
41882;DHT22;27562;47.524;12.404;2023-02-15T07:07:38;-3.10;99.90
41882;DHT22;27562;47.524;12.404;2023-02-15T07:10:04;-3.10;99.90
41882;DHT22;27562;47.524;12.404;2023-02-15T07:12:30;-3.10;99.90
41882;DHT22;27562;47.524;12.404;2023-02-15T07:15:12;-3.00;99.90
41882;DHT22;27562;47.524;12.404;2023-02-15T07:17:38;-3.00;99.90
41882;DHT22;27562;47.524;12.404;2023-02-15T07:20:22;-3.00;99.90
41882;DHT22;27562;47.524;12.404;2023-02-15T07:22:48;-3.00;99.90
41882;DHT22;27562;47.524;12.404;2023-02-15T07:25:14;-3.00;99.90
41882;DHT22;27562;47.524;12.404;2023-02-15T07:27:40;-3.00;99.90
41882;DHT22;27562;47.524;12.404;2023-02-15T07:30:06;-3.00;99.90
41882;DHT22;27562;47.524;12.404;2023-02-15T07:32:32;-2.90;99.90
41882;DHT22;27562;47.524;12.404;2023-02-15T07:34:58;-2.90;99.90
41882;DHT22;27562;47.524;12.404;2023-02-15T07:37:24;-2.80;99.90
41882;DHT22;27562;47.524;12.404;2023-02-15T07:39:50;-2.80;99.90
41882;DHT22;27562;47.524;12.404;2023-02-15T07:42:16;-2.70;99.90
41882;DHT22;27562;47.524;12.404;2023-02-15T07:44:43;-2.70;99.90
41882;DHT22;27562;47.524;12.404;2023-02-15T07:47:08;-2.60;99.90
41882;DHT22;27562;47.524;12.404;2023-02-15T07:49:34;-2.60;99.90
41882;DHT22;27562;47.524;12.404;2023-02-15T07:52:00;-2.50;99.90
41882;DHT22;27562;47.524;12.404;2023-02-15T07:54:26;-2.50;99.90
41882;DHT22;27562;47.524;12.404;2023-02-15T07:56:51;-2.50;99.90
41882;DHT22;27562;47.524;12.404;2023-02-15T07:59:17;-2.40;99.90
41882;DHT22;27562;47.524;12.404;2023-02-15T08:01:42;-2.40;99.90
41882;DHT22;27562;47.524;12.404;2023-02-15T08:04:08;-2.30;99.90
41882;DHT22;27562;47.524;12.404;2023-02-15T08:06:36;-2.30;99.90
41882;DHT22;27562;47.524;12.404;2023-02-15T08:09:06;-2.20;99.90
41882;DHT22;27562;47.524;12.404;2023-02-15T08:11:33;-2.20;99.90
41882;DHT22;27562;47.524;12.404;2023-02-15T08:14:06;-2.10;99.90
41882;DHT22;27562;47.524;12.404;2023-02-15T08:16:33;-2.00;99.90
41882;DHT22;27562;47.524;12.404;2023-02-15T08:19:01;-2.00;99.90
41882;DHT22;27562;47.524;12.404;2023-02-15T08:21:27;-1.90;99.90
41882;DHT22;27562;47.524;12.404;2023-02-15T08:23:53;-1.80;99.90
41882;DHT22;27562;47.524;12.404;2023-02-15T08:26:19;-1.70;99.90
41882;DHT22;27562;47.524;12.404;2023-02-15T08:28:45;-1.60;99.90
41882;DHT22;27562;47.524;12.404;2023-02-15T08:31:12;-1.50;99.90
41882;DHT22;27562;47.524;12.404;2023-02-15T08:33:39;-1.50;99.90
41882;DHT22;27562;47.524;12.404;2023-02-15T08:36:09;-1.40;99.90
41882;DHT22;27562;47.524;12.404;2023-02-15T08:38:35;-1.30;99.90
41882;DHT22;27562;47.524;12.404;2023-02-15T08:41:11;-1.30;99.90
41882;DHT22;27562;47.524;12.404;2023-02-15T08:43:36;-1.20;99.90
41882;DHT22;27562;47.524;12.404;2023-02-15T08:46:02;-1.10;99.90
41882;DHT22;27562;47.524;12.404;2023-02-15T08:48:28;-1.00;99.90
41882;DHT22;27562;47.524;12.404;2023-02-15T08:50:53;-0.90;99.90
41882;DHT22;27562;47.524;12.404;2023-02-15T08:53:19;-0.80;99.90
41882;DHT22;27562;47.524;12.404;2023-02-15T08:55:47;-0.70;99.90
41882;DHT22;27562;47.524;12.404;2023-02-15T08:58:13;-0.60;99.90
41882;DHT22;27562;47.524;12.404;2023-02-15T09:00:38;-0.50;99.90
41882;DHT22;27562;47.524;12.404;2023-02-15T09:03:04;-0.40;99.90
41882;DHT22;27562;47.524;12.404;2023-02-15T09:05:29;-0.40;99.90
41882;DHT22;27562;47.524;12.404;2023-02-15T09:07:55;-0.30;99.90
41882;DHT22;27562;47.524;12.404;2023-02-15T09:10:20;-0.20;99.90
41882;DHT22;27562;47.524;12.404;2023-02-15T09:12:46;-0.10;99.90
41882;DHT22;27562;47.524;12.404;2023-02-15T09:15:11;-0.10;99.90
41882;DHT22;27562;47.524;12.404;2023-02-15T09:17:37;0.00;99.90
41882;DHT22;27562;47.524;12.404;2023-02-15T09:20:03;0.10;99.90
41882;DHT22;27562;47.524;12.404;2023-02-15T09:22:28;0.20;99.90
41882;DHT22;27562;47.524;12.404;2023-02-15T09:24:56;0.30;99.90
41882;DHT22;27562;47.524;12.404;2023-02-15T09:27:21;0.50;99.90
41882;DHT22;27562;47.524;12.404;2023-02-15T09:29:47;0.60;99.90
41882;DHT22;27562;47.524;12.404;2023-02-15T09:32:15;0.70;99.90
41882;DHT22;27562;47.524;12.404;2023-02-15T09:34:42;0.80;99.90
41882;DHT22;27562;47.524;12.404;2023-02-15T09:37:08;0.90;99.90
41882;DHT22;27562;47.524;12.404;2023-02-15T09:39:33;1.00;99.90
41882;DHT22;27562;47.524;12.404;2023-02-15T09:42:07;1.10;99.90
41882;DHT22;27562;47.524;12.404;2023-02-15T09:49:44;1.40;99.90
41882;DHT22;27562;47.524;12.404;2023-02-15T09:54:53;1.70;99.90
41882;DHT22;27562;47.524;12.404;2023-02-15T09:57:37;1.80;99.90
41882;DHT22;27562;47.524;12.404;2023-02-15T10:05:11;2.10;99.90
41882;DHT22;27562;47.524;12.404;2023-02-15T10:20:34;2.70;99.90
41882;DHT22;27562;47.524;12.404;2023-02-15T10:23:21;2.90;99.90
41882;DHT22;27562;47.524;12.404;2023-02-15T10:33:46;3.30;99.90
41882;DHT22;27562;47.524;12.404;2023-02-15T10:38:44;3.50;99.90
41882;DHT22;27562;47.524;12.404;2023-02-15T10:41:26;3.60;99.90
41882;DHT22;27562;47.524;12.404;2023-02-15T10:46:39;3.80;99.90
41882;DHT22;27562;47.524;12.404;2023-02-15T10:51:44;4.10;99.90
41882;DHT22;27562;47.524;12.404;2023-02-15T11:07:08;4.80;99.90
41882;DHT22;27562;47.524;12.404;2023-02-15T11:09:40;4.90;99.90
41882;DHT22;27562;47.524;12.404;2023-02-15T11:12:12;5.00;99.90
41882;DHT22;27562;47.524;12.404;2023-02-15T11:14:44;5.10;99.90
41882;DHT22;27562;47.524;12.404;2023-02-15T11:17:16;5.20;99.90
41882;DHT22;27562;47.524;12.404;2023-02-15T11:22:28;5.30;99.90
41882;DHT22;27562;47.524;12.404;2023-02-15T11:24:55;5.40;99.90
41882;DHT22;27562;47.524;12.404;2023-02-15T11:27:24;5.50;99.90
41882;DHT22;27562;47.524;12.404;2023-02-15T11:29:57;5.60;99.90
41882;DHT22;27562;47.524;12.404;2023-02-15T11:32:25;5.60;99.90
41882;DHT22;27562;47.524;12.404;2023-02-15T11:37:51;5.80;99.90
41882;DHT22;27562;47.524;12.404;2023-02-15T11:42:47;5.90;99.90
41882;DHT22;27562;47.524;12.404;2023-02-15T11:45:31;6.00;99.90
41882;DHT22;27562;47.524;12.404;2023-02-15T11:47:57;6.10;99.90
41882;DHT22;27562;47.524;12.404;2023-02-15T11:50:27;6.20;98.30
41882;DHT22;27562;47.524;12.404;2023-02-15T11:53:01;6.20;97.20
41882;DHT22;27562;47.524;12.404;2023-02-15T11:55:27;6.30;96.30
41882;DHT22;27562;47.524;12.404;2023-02-15T11:57:55;6.30;96.40
41882;DHT22;27562;47.524;12.404;2023-02-15T12:00:38;6.40;96.40
41882;DHT22;27562;47.524;12.404;2023-02-15T12:06:13;6.70;97.50
41882;DHT22;27562;47.524;12.404;2023-02-15T12:08:42;6.80;97.60
41882;DHT22;27562;47.524;12.404;2023-02-15T12:11:09;6.90;97.10
41882;DHT22;27562;47.524;12.404;2023-02-15T12:16:21;7.10;96.10
41882;DHT22;27562;47.524;12.404;2023-02-15T12:18:47;7.20;96.30
41882;DHT22;27562;47.524;12.404;2023-02-15T12:21:14;7.30;96.40
41882;DHT22;27562;47.524;12.404;2023-02-15T12:23:46;7.40;95.50
41882;DHT22;27562;47.524;12.404;2023-02-15T12:26:13;7.40;95.80
41882;DHT22;27562;47.524;12.404;2023-02-15T12:28:42;7.60;95.20
41882;DHT22;27562;47.524;12.404;2023-02-15T12:31:32;7.60;95.10
41882;DHT22;27562;47.524;12.404;2023-02-15T12:33:56;7.70;94.80
41882;DHT22;27562;47.524;12.404;2023-02-15T12:36:30;7.80;94.70
41882;DHT22;27562;47.524;12.404;2023-02-15T12:41:38;7.90;94.20
41882;DHT22;27562;47.524;12.404;2023-02-15T12:46:31;8.10;93.00
41882;DHT22;27562;47.524;12.404;2023-02-15T12:51:44;8.20;93.20
41882;DHT22;27562;47.524;12.404;2023-02-15T12:54:30;8.30;92.60
41882;DHT22;27562;47.524;12.404;2023-02-15T12:56:56;8.40;92.40
41882;DHT22;27562;47.524;12.404;2023-02-15T12:59:22;8.40;92.40
41882;DHT22;27562;47.524;12.404;2023-02-15T13:01:48;8.50;92.10
41882;DHT22;27562;47.524;12.404;2023-02-15T13:04:27;8.60;92.60
41882;DHT22;27562;47.524;12.404;2023-02-15T13:06:54;8.70;92.40
41882;DHT22;27562;47.524;12.404;2023-02-15T13:09:25;8.80;90.90
41882;DHT22;27562;47.524;12.404;2023-02-15T13:11:51;8.90;90.90
41882;DHT22;27562;47.524;12.404;2023-02-15T13:14:17;8.90;91.40
41882;DHT22;27562;47.524;12.404;2023-02-15T13:16:44;8.90;91.00
41882;DHT22;27562;47.524;12.404;2023-02-15T13:22:26;9.00;90.10
41882;DHT22;27562;47.524;12.404;2023-02-15T13:24:53;9.00;89.70
41882;DHT22;27562;47.524;12.404;2023-02-15T13:27:22;9.00;87.00
41882;DHT22;27562;47.524;12.404;2023-02-15T13:29:50;9.00;83.20
41882;DHT22;27562;47.524;12.404;2023-02-15T13:34:47;9.00;83.20
41882;DHT22;27562;47.524;12.404;2023-02-15T13:37:18;9.00;82.10
41882;DHT22;27562;47.524;12.404;2023-02-15T13:39:54;8.90;81.60
41882;DHT22;27562;47.524;12.404;2023-02-15T13:52:23;9.10;79.00
41882;DHT22;27562;47.524;12.404;2023-02-15T14:02:37;9.30;79.60
41882;DHT22;27562;47.524;12.404;2023-02-15T14:10:35;9.30;82.70
41882;DHT22;27562;47.524;12.404;2023-02-15T14:25:48;9.20;78.80
41882;DHT22;27562;47.524;12.404;2023-02-15T14:28:18;9.20;78.30
41882;DHT22;27562;47.524;12.404;2023-02-15T14:30:48;9.30;78.80
41882;DHT22;27562;47.524;12.404;2023-02-15T14:35:39;9.20;76.60
41882;DHT22;27562;47.524;12.404;2023-02-15T14:43:34;9.20;80.30
41882;DHT22;27562;47.524;12.404;2023-02-15T14:48:30;9.30;80.40
41882;DHT22;27562;47.524;12.404;2023-02-15T14:50:56;9.30;78.10
41882;DHT22;27562;47.524;12.404;2023-02-15T14:53:24;9.30;77.90
41882;DHT22;27562;47.524;12.404;2023-02-15T15:01:29;9.20;78.30
41882;DHT22;27562;47.524;12.404;2023-02-15T15:03:57;9.10;79.40
41882;DHT22;27562;47.524;12.404;2023-02-15T15:06:31;9.10;79.70
41882;DHT22;27562;47.524;12.404;2023-02-15T15:11:51;8.90;80.00
41882;DHT22;27562;47.524;12.404;2023-02-15T15:16:58;8.70;81.20
41882;DHT22;27562;47.524;12.404;2023-02-15T15:22:19;8.50;82.50
41882;DHT22;27562;47.524;12.404;2023-02-15T15:24:46;8.40;83.60
41882;DHT22;27562;47.524;12.404;2023-02-15T15:29:56;8.20;85.90
41882;DHT22;27562;47.524;12.404;2023-02-15T15:32:22;8.00;86.50
41882;DHT22;27562;47.524;12.404;2023-02-15T15:35:08;7.90;88.30
41882;DHT22;27562;47.524;12.404;2023-02-15T15:40:26;7.70;90.40
41882;DHT22;27562;47.524;12.404;2023-02-15T15:45:53;7.40;90.80
41882;DHT22;27562;47.524;12.404;2023-02-15T15:48:33;7.20;90.80
41882;DHT22;27562;47.524;12.404;2023-02-15T15:51:04;7.00;91.40
41882;DHT22;27562;47.524;12.404;2023-02-15T15:53:32;6.80;92.10
41882;DHT22;27562;47.524;12.404;2023-02-15T15:56:02;6.60;92.70
41882;DHT22;27562;47.524;12.404;2023-02-15T15:58:28;6.40;93.10
41882;DHT22;27562;47.524;12.404;2023-02-15T16:01:02;6.20;93.30
41882;DHT22;27562;47.524;12.404;2023-02-15T16:03:28;6.10;93.10
41882;DHT22;27562;47.524;12.404;2023-02-15T16:05:54;6.00;93.20
41882;DHT22;27562;47.524;12.404;2023-02-15T16:08:31;5.90;93.20
41882;DHT22;27562;47.524;12.404;2023-02-15T16:10:57;5.80;93.90
41882;DHT22;27562;47.524;12.404;2023-02-15T16:13:23;5.60;94.50
41882;DHT22;27562;47.524;12.404;2023-02-15T16:15:53;5.50;95.30
41882;DHT22;27562;47.524;12.404;2023-02-15T16:18:21;5.40;95.90
41882;DHT22;27562;47.524;12.404;2023-02-15T16:20:52;5.30;96.30
41882;DHT22;27562;47.524;12.404;2023-02-15T16:28:28;4.70;98.50
41882;DHT22;27562;47.524;12.404;2023-02-15T16:31:13;4.60;99.40
41882;DHT22;27562;47.524;12.404;2023-02-15T16:33:39;4.50;99.90
41882;DHT22;27562;47.524;12.404;2023-02-15T16:36:05;4.30;99.90
41882;DHT22;27562;47.524;12.404;2023-02-15T16:41:09;4.10;99.90
41882;DHT22;27562;47.524;12.404;2023-02-15T16:43:35;4.00;99.90
41882;DHT22;27562;47.524;12.404;2023-02-15T16:46:11;3.90;99.90
41882;DHT22;27562;47.524;12.404;2023-02-15T16:48:39;3.80;99.90
41882;DHT22;27562;47.524;12.404;2023-02-15T16:51:06;3.80;99.90
41882;DHT22;27562;47.524;12.404;2023-02-15T16:53:32;3.70;99.90
41882;DHT22;27562;47.524;12.404;2023-02-15T16:55:58;3.60;99.90
41882;DHT22;27562;47.524;12.404;2023-02-15T16:58:26;3.50;99.90
41882;DHT22;27562;47.524;12.404;2023-02-15T17:00:55;3.40;99.90
41882;DHT22;27562;47.524;12.404;2023-02-15T17:03:23;3.30;99.90
41882;DHT22;27562;47.524;12.404;2023-02-15T17:05:51;3.30;99.90
41882;DHT22;27562;47.524;12.404;2023-02-15T17:13:32;3.10;99.90
41882;DHT22;27562;47.524;12.404;2023-02-15T17:18:24;3.00;99.90
41882;DHT22;27562;47.524;12.404;2023-02-15T17:20:52;2.90;99.90
41882;DHT22;27562;47.524;12.404;2023-02-15T17:23:32;2.90;99.90
41882;DHT22;27562;47.524;12.404;2023-02-15T17:25:59;2.80;99.90
41882;DHT22;27562;47.524;12.404;2023-02-15T17:28:29;2.80;99.90
41882;DHT22;27562;47.524;12.404;2023-02-15T17:30:56;2.80;99.90
41882;DHT22;27562;47.524;12.404;2023-02-15T17:36:07;2.60;99.90
41882;DHT22;27562;47.524;12.404;2023-02-15T17:38:35;2.60;99.90
41882;DHT22;27562;47.524;12.404;2023-02-15T17:41:01;2.50;99.90
41882;DHT22;27562;47.524;12.404;2023-02-15T17:43:27;2.40;99.90
41882;DHT22;27562;47.524;12.404;2023-02-15T17:45:54;2.40;99.90
41882;DHT22;27562;47.524;12.404;2023-02-15T17:50:47;2.20;99.90
41882;DHT22;27562;47.524;12.404;2023-02-15T17:53:15;2.20;99.90
41882;DHT22;27562;47.524;12.404;2023-02-15T17:55:42;2.20;99.90
41882;DHT22;27562;47.524;12.404;2023-02-15T17:58:15;2.20;99.90
41882;DHT22;27562;47.524;12.404;2023-02-15T18:00:45;2.10;99.90
41882;DHT22;27562;47.524;12.404;2023-02-15T18:03:46;2.10;99.90
41882;DHT22;27562;47.524;12.404;2023-02-15T18:06:31;2.00;99.90
41882;DHT22;27562;47.524;12.404;2023-02-15T18:09:17;2.00;99.90
41882;DHT22;27562;47.524;12.404;2023-02-15T18:12:02;1.90;99.90
41882;DHT22;27562;47.524;12.404;2023-02-15T18:14:28;1.90;99.90
41882;DHT22;27562;47.524;12.404;2023-02-15T18:16:54;1.90;99.90
41882;DHT22;27562;47.524;12.404;2023-02-15T18:19:21;1.90;99.90
41882;DHT22;27562;47.524;12.404;2023-02-15T18:21:47;1.90;99.90
41882;DHT22;27562;47.524;12.404;2023-02-15T18:24:18;1.80;99.90
41882;DHT22;27562;47.524;12.404;2023-02-15T18:26:45;1.70;99.90
41882;DHT22;27562;47.524;12.404;2023-02-15T18:29:12;1.70;99.90
41882;DHT22;27562;47.524;12.404;2023-02-15T18:31:38;1.60;99.90
41882;DHT22;27562;47.524;12.404;2023-02-15T18:34:04;1.60;99.90
41882;DHT22;27562;47.524;12.404;2023-02-15T18:36:32;1.50;99.90
41882;DHT22;27562;47.524;12.404;2023-02-15T18:39:01;1.40;99.90
41882;DHT22;27562;47.524;12.404;2023-02-15T18:41:28;1.40;99.90
41882;DHT22;27562;47.524;12.404;2023-02-15T18:43:54;1.40;99.90
41882;DHT22;27562;47.524;12.404;2023-02-15T18:46:22;1.40;99.90
41882;DHT22;27562;47.524;12.404;2023-02-15T18:48:48;1.40;99.90